Terminal Aerodrome Forecast
Issued by NWS Northern Indiana

Home | Current Version | Previous Version | Text Only | Print | Product List | Glossary On
Versions: 1 2 3 4 5 6 7 8 9 10 11 12 13 14 15 16
000
FTUS43 KIWX 311600 AAB
TAFFWA
TAF AMD
KFWA 311623Z 3116/0112 30011G17KT P6SM -RA BKN015
     FM311800 31015G27KT 5SM -RA BR OVC020
     FM312000 34020G33KT 5SM -RASN OVC015
     FM010400 35016G25KT P6SM BKN025=

USA.gov is the U.S. government's official web portal to all federal, state and local government web resources and services.